sensor_id;sensor_type;location;lat;lon;timestamp;temperature;humidity
2002;DHT22;1003;48.002;7.788;2023-03-01T00:01:13;-3.30;99.90
2002;DHT22;1003;48.002;7.788;2023-03-01T00:03:42;-3.30;99.90
2002;DHT22;1003;48.002;7.788;2023-03-01T00:06:11;-3.30;99.90
2002;DHT22;1003;48.002;7.788;2023-03-01T00:08:38;-3.40;99.90
2002;DHT22;1003;48.002;7.788;2023-03-01T00:11:07;-3.30;99.90
2002;DHT22;1003;48.002;7.788;2023-03-01T00:13:36;-3.30;99.90
2002;DHT22;1003;48.002;7.788;2023-03-01T00:16:04;-3.20;99.90
2002;DHT22;1003;48.002;7.788;2023-03-01T00:18:33;-3.30;99.90
2002;DHT22;1003;48.002;7.788;2023-03-01T00:21:00;-3.30;99.90
2002;DHT22;1003;48.002;7.788;2023-03-01T00:23:29;-3.30;99.90
2002;DHT22;1003;48.002;7.788;2023-03-01T00:25:57;-3.10;99.90
2002;DHT22;1003;48.002;7.788;2023-03-01T00:28:24;-3.00;99.90
2002;DHT22;1003;48.002;7.788;2023-03-01T00:30:51;-3.00;99.90
2002;DHT22;1003;48.002;7.788;2023-03-01T00:33:19;-2.70;99.90
2002;DHT22;1003;48.002;7.788;2023-03-01T00:35:46;-2.70;99.90
2002;DHT22;1003;48.002;7.788;2023-03-01T00:38:13;-2.70;99.90
2002;DHT22;1003;48.002;7.788;2023-03-01T00:40:41;-2.80;99.90
2002;DHT22;1003;48.002;7.788;2023-03-01T00:43:09;-2.70;99.90
2002;DHT22;1003;48.002;7.788;2023-03-01T00:45:36;-2.40;99.90
2002;DHT22;1003;48.002;7.788;2023-03-01T00:48:04;-2.50;99.90
2002;DHT22;1003;48.002;7.788;2023-03-01T00:50:31;-2.50;99.90
2002;DHT22;1003;48.002;7.788;2023-03-01T00:52:58;-2.30;99.90
2002;DHT22;1003;48.002;7.788;2023-03-01T00:55:26;-2.20;99.90
2002;DHT22;1003;48.002;7.788;2023-03-01T00:57:54;-2.00;99.90
2002;DHT22;1003;48.002;7.788;2023-03-01T01:00:21;-2.10;99.90
2002;DHT22;1003;48.002;7.788;2023-03-01T01:02:49;-2.30;99.90
2002;DHT22;1003;48.002;7.788;2023-03-01T01:05:16;-2.30;99.90
2002;DHT22;1003;48.002;7.788;2023-03-01T01:07:46;-2.10;99.90
2002;DHT22;1003;48.002;7.788;2023-03-01T01:10:14;-2.00;99.90
2002;DHT22;1003;48.002;7.788;2023-03-01T01:12:43;-2.10;99.90
2002;DHT22;1003;48.002;7.788;2023-03-01T01:15:12;-2.30;99.90
2002;DHT22;1003;48.002;7.788;2023-03-01T01:17:42;-2.50;99.90
2002;DHT22;1003;48.002;7.788;2023-03-01T01:20:10;-2.40;99.90
2002;DHT22;1003;48.002;7.788;2023-03-01T01:22:37;-2.40;99.90
2002;DHT22;1003;48.002;7.788;2023-03-01T01:25:05;-2.50;99.90
2002;DHT22;1003;48.002;7.788;2023-03-01T01:27:33;-2.60;99.90
2002;DHT22;1003;48.002;7.788;2023-03-01T01:30:00;-2.50;99.90
2002;DHT22;1003;48.002;7.788;2023-03-01T01:32:29;-2.40;99.90
2002;DHT22;1003;48.002;7.788;2023-03-01T01:34:56;-2.50;99.90
2002;DHT22;1003;48.002;7.788;2023-03-01T01:37:23;-2.60;99.90
2002;DHT22;1003;48.002;7.788;2023-03-01T01:39:56;-2.70;99.90
2002;DHT22;1003;48.002;7.788;2023-03-01T01:42:23;-2.80;99.90
2002;DHT22;1003;48.002;7.788;2023-03-01T01:47:55;-2.70;99.90
2002;DHT22;1003;48.002;7.788;2023-03-01T01:50:26;-2.80;99.90
2002;DHT22;1003;48.002;7.788;2023-03-01T01:53:06;-2.70;99.90
2002;DHT22;1003;48.002;7.788;2023-03-01T01:55:37;-2.80;99.90
2002;DHT22;1003;48.002;7.788;2023-03-01T01:58:11;-2.80;99.90
2002;DHT22;1003;48.002;7.788;2023-03-01T02:00:42;-2.70;99.90
2002;DHT22;1003;48.002;7.788;2023-03-01T02:03:13;-2.80;99.90
2002;DHT22;1003;48.002;7.788;2023-03-01T02:05:47;-2.90;99.90
2002;DHT22;1003;48.002;7.788;2023-03-01T02:08:21;-2.90;99.90
2002;DHT22;1003;48.002;7.788;2023-03-01T02:10:52;-2.80;99.90
2002;DHT22;1003;48.002;7.788;2023-03-01T02:13:21;-2.90;99.90
2002;DHT22;1003;48.002;7.788;2023-03-01T02:15:49;-3.00;99.90
2002;DHT22;1003;48.002;7.788;2023-03-01T02:18:19;-3.10;99.90
2002;DHT22;1003;48.002;7.788;2023-03-01T02:20:59;-3.10;99.90
2002;DHT22;1003;48.002;7.788;2023-03-01T02:23:35;-3.10;99.90
2002;DHT22;1003;48.002;7.788;2023-03-01T02:26:07;-3.20;99.90
2002;DHT22;1003;48.002;7.788;2023-03-01T02:28:42;-3.10;99.90
2002;DHT22;1003;48.002;7.788;2023-03-01T02:31:15;-3.10;99.90
2002;DHT22;1003;48.002;7.788;2023-03-01T02:34:03;-3.20;99.90
2002;DHT22;1003;48.002;7.788;2023-03-01T02:36:35;-3.10;99.90
2002;DHT22;1003;48.002;7.788;2023-03-01T02:39:05;-3.30;99.90
2002;DHT22;1003;48.002;7.788;2023-03-01T02:41:42;-3.40;99.90
2002;DHT22;1003;48.002;7.788;2023-03-01T02:44:14;-3.30;99.90
2002;DHT22;1003;48.002;7.788;2023-03-01T02:46:42;-3.30;99.90
2002;DHT22;1003;48.002;7.788;2023-03-01T02:49:21;-3.30;99.90
2002;DHT22;1003;48.002;7.788;2023-03-01T02:52:05;-3.30;99.90
2002;DHT22;1003;48.002;7.788;2023-03-01T02:54:46;-3.00;99.90
2002;DHT22;1003;48.002;7.788;2023-03-01T02:57:17;-3.10;99.90
2002;DHT22;1003;48.002;7.788;2023-03-01T02:59:46;-3.00;99.90
2002;DHT22;1003;48.002;7.788;2023-03-01T03:02:21;-3.10;99.90
2002;DHT22;1003;48.002;7.788;2023-03-01T03:05:06;-3.30;99.90
2002;DHT22;1003;48.002;7.788;2023-03-01T03:07:36;-3.30;99.90
2002;DHT22;1003;48.002;7.788;2023-03-01T03:10:08;-3.40;99.90
2002;DHT22;1003;48.002;7.788;2023-03-01T03:12:37;-3.50;99.90
2002;DHT22;1003;48.002;7.788;2023-03-01T03:15:07;-3.60;99.90
2002;DHT22;1003;48.002;7.788;2023-03-01T03:17:39;-3.70;99.90
2002;DHT22;1003;48.002;7.788;2023-03-01T03:20:10;-3.70;99.90
2002;DHT22;1003;48.002;7.788;2023-03-01T03:22:44;-3.70;99.90
2002;DHT22;1003;48.002;7.788;2023-03-01T03:25:11;-3.70;99.90
2002;DHT22;1003;48.002;7.788;2023-03-01T03:27:40;-3.70;99.90
2002;DHT22;1003;48.002;7.788;2023-03-01T03:30:13;-3.80;99.90
2002;DHT22;1003;48.002;7.788;2023-03-01T03:32:42;-3.90;99.90
2002;DHT22;1003;48.002;7.788;2023-03-01T03:35:19;-3.80;99.90
2002;DHT22;1003;48.002;7.788;2023-03-01T03:37:47;-3.90;99.90
2002;DHT22;1003;48.002;7.788;2023-03-01T03:40:33;-3.90;99.90
2002;DHT22;1003;48.002;7.788;2023-03-01T03:43:02;-3.90;99.90
2002;DHT22;1003;48.002;7.788;2023-03-01T03:45:31;-3.90;99.90
2002;DHT22;1003;48.002;7.788;2023-03-01T03:47:59;-3.80;99.90
2002;DHT22;1003;48.002;7.788;2023-03-01T03:50:26;-3.80;99.90
2002;DHT22;1003;48.002;7.788;2023-03-01T03:52:54;-3.70;99.90
2002;DHT22;1003;48.002;7.788;2023-03-01T03:55:21;-3.70;99.90
2002;DHT22;1003;48.002;7.788;2023-03-01T03:57:48;-3.50;99.90
2002;DHT22;1003;48.002;7.788;2023-03-01T04:00:18;-3.60;99.90
2002;DHT22;1003;48.002;7.788;2023-03-01T04:02:48;-3.60;99.90
2002;DHT22;1003;48.002;7.788;2023-03-01T04:05:17;-3.60;99.90
2002;DHT22;1003;48.002;7.788;2023-03-01T04:07:45;-3.50;99.90
2002;DHT22;1003;48.002;7.788;2023-03-01T04:10:15;-3.50;99.90
2002;DHT22;1003;48.002;7.788;2023-03-01T04:12:43;-3.40;99.90
2002;DHT22;1003;48.002;7.788;2023-03-01T04:15:11;-3.40;99.90
2002;DHT22;1003;48.002;7.788;2023-03-01T04:17:42;-3.40;99.90
2002;DHT22;1003;48.002;7.788;2023-03-01T04:20:15;-3.30;99.90
2002;DHT22;1003;48.002;7.788;2023-03-01T04:22:50;-3.20;99.90
2002;DHT22;1003;48.002;7.788;2023-03-01T04:25:18;-3.20;99.90
2002;DHT22;1003;48.002;7.788;2023-03-01T04:27:45;-3.10;99.90
2002;DHT22;1003;48.002;7.788;2023-03-01T04:30:12;-3.10;99.90
2002;DHT22;1003;48.002;7.788;2023-03-01T04:32:40;-3.00;99.90
2002;DHT22;1003;48.002;7.788;2023-03-01T04:35:07;-3.00;99.90
2002;DHT22;1003;48.002;7.788;2023-03-01T04:37:36;-2.90;99.90
2002;DHT22;1003;48.002;7.788;2023-03-01T04:40:04;-2.80;99.90
2002;DHT22;1003;48.002;7.788;2023-03-01T04:42:41;-2.80;99.90
2002;DHT22;1003;48.002;7.788;2023-03-01T04:45:09;-2.70;99.90
2002;DHT22;1003;48.002;7.788;2023-03-01T04:47:39;-2.60;99.90
2002;DHT22;1003;48.002;7.788;2023-03-01T04:50:08;-2.60;99.90
2002;DHT22;1003;48.002;7.788;2023-03-01T04:52:37;-2.50;99.90
2002;DHT22;1003;48.002;7.788;2023-03-01T04:55:05;-2.60;99.90
2002;DHT22;1003;48.002;7.788;2023-03-01T04:57:33;-2.40;99.90
2002;DHT22;1003;48.002;7.788;2023-03-01T05:00:00;-2.30;99.90
2002;DHT22;1003;48.002;7.788;2023-03-01T05:02:46;-2.30;99.90
2002;DHT22;1003;48.002;7.788;2023-03-01T05:05:20;-2.30;99.90
2002;DHT22;1003;48.002;7.788;2023-03-01T05:07:53;-2.30;99.90
2002;DHT22;1003;48.002;7.788;2023-03-01T05:10:21;-2.30;99.90
2002;DHT22;1003;48.002;7.788;2023-03-01T05:12:49;-2.30;99.90
2002;DHT22;1003;48.002;7.788;2023-03-01T05:15:17;-2.30;99.90
2002;DHT22;1003;48.002;7.788;2023-03-01T05:17:47;-2.30;99.90
2002;DHT22;1003;48.002;7.788;2023-03-01T05:20:15;-2.30;99.90
2002;DHT22;1003;48.002;7.788;2023-03-01T05:22:42;-2.20;99.90
2002;DHT22;1003;48.002;7.788;2023-03-01T05:25:10;-2.10;99.90
2002;DHT22;1003;48.002;7.788;2023-03-01T05:27:39;-2.00;99.90
2002;DHT22;1003;48.002;7.788;2023-03-01T05:30:07;-1.80;99.90
2002;DHT22;1003;48.002;7.788;2023-03-01T05:32:44;-1.90;99.90
2002;DHT22;1003;48.002;7.788;2023-03-01T05:35:13;-1.90;99.90
2002;DHT22;1003;48.002;7.788;2023-03-01T05:37:43;-1.90;99.90
2002;DHT22;1003;48.002;7.788;2023-03-01T05:40:14;-1.80;99.90
2002;DHT22;1003;48.002;7.788;2023-03-01T05:42:45;-1.90;99.90
2002;DHT22;1003;48.002;7.788;2023-03-01T05:45:14;-2.00;99.90
2002;DHT22;1003;48.002;7.788;2023-03-01T05:47:44;-2.00;99.90
2002;DHT22;1003;48.002;7.788;2023-03-01T05:50:16;-2.00;99.90
2002;DHT22;1003;48.002;7.788;2023-03-01T05:52:46;-2.00;99.90
2002;DHT22;1003;48.002;7.788;2023-03-01T05:55:16;-1.90;99.90
2002;DHT22;1003;48.002;7.788;2023-03-01T05:57:44;-1.90;99.90
2002;DHT22;1003;48.002;7.788;2023-03-01T06:00:13;-1.90;99.90
2002;DHT22;1003;48.002;7.788;2023-03-01T06:02:42;-1.90;99.90
2002;DHT22;1003;48.002;7.788;2023-03-01T06:05:10;-1.80;99.90
2002;DHT22;1003;48.002;7.788;2023-03-01T06:07:39;-1.90;99.90
2002;DHT22;1003;48.002;7.788;2023-03-01T06:10:08;-1.80;99.90
2002;DHT22;1003;48.002;7.788;2023-03-01T06:12:39;-1.90;99.90
2002;DHT22;1003;48.002;7.788;2023-03-01T06:15:09;-1.80;99.90
2002;DHT22;1003;48.002;7.788;2023-03-01T06:17:39;-1.80;99.90
2002;DHT22;1003;48.002;7.788;2023-03-01T06:20:10;-1.70;99.90
2002;DHT22;1003;48.002;7.788;2023-03-01T06:22:38;-1.70;99.90
2002;DHT22;1003;48.002;7.788;2023-03-01T06:25:07;-1.70;99.90
2002;DHT22;1003;48.002;7.788;2023-03-01T06:27:35;-1.70;99.90
2002;DHT22;1003;48.002;7.788;2023-03-01T06:30:04;-1.60;99.90
2002;DHT22;1003;48.002;7.788;2023-03-01T06:32:34;-1.50;99.90
2002;DHT22;1003;48.002;7.788;2023-03-01T06:35:02;-1.50;99.90
2002;DHT22;1003;48.002;7.788;2023-03-01T06:37:29;-1.50;99.90
2002;DHT22;1003;48.002;7.788;2023-03-01T06:39:56;-1.40;99.90
2002;DHT22;1003;48.002;7.788;2023-03-01T06:42:23;-1.40;99.90
2002;DHT22;1003;48.002;7.788;2023-03-01T06:44:50;-1.40;99.90
2002;DHT22;1003;48.002;7.788;2023-03-01T06:47:19;-1.40;99.90
2002;DHT22;1003;48.002;7.788;2023-03-01T06:49:46;-1.30;99.90
2002;DHT22;1003;48.002;7.788;2023-03-01T06:52:13;-1.30;99.90
2002;DHT22;1003;48.002;7.788;2023-03-01T06:54:40;-1.20;99.90
2002;DHT22;1003;48.002;7.788;2023-03-01T06:57:07;-1.20;99.90
2002;DHT22;1003;48.002;7.788;2023-03-01T06:59:34;-1.10;99.90
2002;DHT22;1003;48.002;7.788;2023-03-01T07:02:01;-1.10;99.90
2002;DHT22;1003;48.002;7.788;2023-03-01T07:04:29;-0.90;99.90
2002;DHT22;1003;48.002;7.788;2023-03-01T07:06:56;-1.00;99.90
2002;DHT22;1003;48.002;7.788;2023-03-01T07:09:24;-1.10;99.90
2002;DHT22;1003;48.002;7.788;2023-03-01T07:11:51;-0.90;99.90
2002;DHT22;1003;48.002;7.788;2023-03-01T07:14:18;-1.00;99.90
2002;DHT22;1003;48.002;7.788;2023-03-01T07:16:45;-1.00;99.90
2002;DHT22;1003;48.002;7.788;2023-03-01T07:19:12;-1.00;99.90
2002;DHT22;1003;48.002;7.788;2023-03-01T07:21:41;-1.10;99.90
2002;DHT22;1003;48.002;7.788;2023-03-01T07:24:09;-1.00;99.90
2002;DHT22;1003;48.002;7.788;2023-03-01T07:26:36;-1.00;99.90
2002;DHT22;1003;48.002;7.788;2023-03-01T07:29:05;-0.80;99.90
2002;DHT22;1003;48.002;7.788;2023-03-01T07:31:34;-0.80;99.90
2002;DHT22;1003;48.002;7.788;2023-03-01T07:34:02;-0.70;99.90
2002;DHT22;1003;48.002;7.788;2023-03-01T07:36:29;-0.70;99.90
2002;DHT22;1003;48.002;7.788;2023-03-01T07:38:58;-0.60;99.90
2002;DHT22;1003;48.002;7.788;2023-03-01T07:41:27;-0.60;99.90
2002;DHT22;1003;48.002;7.788;2023-03-01T07:43:55;-0.70;99.90
2002;DHT22;1003;48.002;7.788;2023-03-01T07:46:22;-0.60;99.90
2002;DHT22;1003;48.002;7.788;2023-03-01T07:48:49;-0.40;99.90
2002;DHT22;1003;48.002;7.788;2023-03-01T07:51:16;-0.20;99.90
2002;DHT22;1003;48.002;7.788;2023-03-01T07:53:45;-0.30;99.90
2002;DHT22;1003;48.002;7.788;2023-03-01T07:56:15;-0.40;99.90
2002;DHT22;1003;48.002;7.788;2023-03-01T07:58:44;-0.30;99.90
2002;DHT22;1003;48.002;7.788;2023-03-01T08:01:14;-0.30;99.90
2002;DHT22;1003;48.002;7.788;2023-03-01T08:03:43;-0.20;99.90
2002;DHT22;1003;48.002;7.788;2023-03-01T08:06:13;-0.10;99.90
2002;DHT22;1003;48.002;7.788;2023-03-01T08:08:42;0.00;99.90
2002;DHT22;1003;48.002;7.788;2023-03-01T08:11:11;0.10;99.90
2002;DHT22;1003;48.002;7.788;2023-03-01T08:13:41;0.30;99.90
2002;DHT22;1003;48.002;7.788;2023-03-01T08:16:11;0.00;99.90
2002;DHT22;1003;48.002;7.788;2023-03-01T08:18:40;0.10;99.90
2002;DHT22;1003;48.002;7.788;2023-03-01T08:21:10;0.10;99.90
2002;DHT22;1003;48.002;7.788;2023-03-01T08:23:39;0.10;99.90
2002;DHT22;1003;48.002;7.788;2023-03-01T08:26:08;0.30;99.90
2002;DHT22;1003;48.002;7.788;2023-03-01T08:28:37;0.30;99.90
2002;DHT22;1003;48.002;7.788;2023-03-01T08:31:15;0.30;99.90
2002;DHT22;1003;48.002;7.788;2023-03-01T08:33:44;0.40;99.90
2002;DHT22;1003;48.002;7.788;2023-03-01T08:36:16;0.70;99.90
2002;DHT22;1003;48.002;7.788;2023-03-01T08:38:43;0.80;99.90
2002;DHT22;1003;48.002;7.788;2023-03-01T08:41:11;0.60;99.90
2002;DHT22;1003;48.002;7.788;2023-03-01T08:43:38;0.50;99.90
2002;DHT22;1003;48.002;7.788;2023-03-01T08:46:05;0.50;99.90
2002;DHT22;1003;48.002;7.788;2023-03-01T08:48:34;0.90;99.90
2002;DHT22;1003;48.002;7.788;2023-03-01T08:51:07;1.00;99.90
2002;DHT22;1003;48.002;7.788;2023-03-01T08:53:35;1.00;99.90
2002;DHT22;1003;48.002;7.788;2023-03-01T08:56:02;1.00;99.90
2002;DHT22;1003;48.002;7.788;2023-03-01T08:58:30;1.00;99.90
2002;DHT22;1003;48.002;7.788;2023-03-01T09:00:57;0.80;99.90
2002;DHT22;1003;48.002;7.788;2023-03-01T09:03:25;0.70;99.90
2002;DHT22;1003;48.002;7.788;2023-03-01T09:06:00;0.90;99.90
2002;DHT22;1003;48.002;7.788;2023-03-01T09:08:27;1.30;99.90
2002;DHT22;1003;48.002;7.788;2023-03-01T09:10:55;1.10;99.90
2002;DHT22;1003;48.002;7.788;2023-03-01T09:13:22;1.30;99.90
2002;DHT22;1003;48.002;7.788;2023-03-01T09:15:50;1.40;99.90
2002;DHT22;1003;48.002;7.788;2023-03-01T09:18:18;1.10;99.90
2002;DHT22;1003;48.002;7.788;2023-03-01T09:20:45;1.50;99.90
2002;DHT22;1003;48.002;7.788;2023-03-01T09:23:13;1.60;99.90
2002;DHT22;1003;48.002;7.788;2023-03-01T09:25:40;1.50;99.90
2002;DHT22;1003;48.002;7.788;2023-03-01T09:28:07;1.40;99.90
2002;DHT22;1003;48.002;7.788;2023-03-01T09:30:36;1.60;99.90
2002;DHT22;1003;48.002;7.788;2023-03-01T09:33:03;2.00;99.90
2002;DHT22;1003;48.002;7.788;2023-03-01T09:35:30;1.90;99.90
2002;DHT22;1003;48.002;7.788;2023-03-01T09:37:57;2.00;99.90
2002;DHT22;1003;48.002;7.788;2023-03-01T09:40:26;2.20;99.90
2002;DHT22;1003;48.002;7.788;2023-03-01T09:43:02;2.30;99.90
2002;DHT22;1003;48.002;7.788;2023-03-01T09:45:41;2.40;99.90
2002;DHT22;1003;48.002;7.788;2023-03-01T09:48:16;2.70;99.90
2002;DHT22;1003;48.002;7.788;2023-03-01T09:50:47;2.50;99.90
2002;DHT22;1003;48.002;7.788;2023-03-01T09:53:17;2.40;99.90
2002;DHT22;1003;48.002;7.788;2023-03-01T09:55:51;2.60;99.90
2002;DHT22;1003;48.002;7.788;2023-03-01T09:58:39;2.50;99.90
2002;DHT22;1003;48.002;7.788;2023-03-01T10:01:27;2.50;99.90
2002;DHT22;1003;48.002;7.788;2023-03-01T10:04:10;2.70;99.90
2002;DHT22;1003;48.002;7.788;2023-03-01T10:06:56;3.00;99.90
2002;DHT22;1003;48.002;7.788;2023-03-01T10:09:34;2.90;99.90
2002;DHT22;1003;48.002;7.788;2023-03-01T10:12:09;3.30;99.90
2002;DHT22;1003;48.002;7.788;2023-03-01T10:14:43;3.30;99.90
2002;DHT22;1003;48.002;7.788;2023-03-01T10:17:24;3.10;99.90
2002;DHT22;1003;48.002;7.788;2023-03-01T10:20:01;2.90;99.90
2002;DHT22;1003;48.002;7.788;2023-03-01T10:22:42;3.30;99.90
2002;DHT22;1003;48.002;7.788;2023-03-01T10:25:14;3.80;99.90
2002;DHT22;1003;48.002;7.788;2023-03-01T10:27:49;4.10;99.90
2002;DHT22;1003;48.002;7.788;2023-03-01T10:30:21;4.00;99.90
2002;DHT22;1003;48.002;7.788;2023-03-01T10:32:57;4.00;99.90
2002;DHT22;1003;48.002;7.788;2023-03-01T10:35:26;4.50;99.90
2002;DHT22;1003;48.002;7.788;2023-03-01T10:38:02;4.70;99.90
2002;DHT22;1003;48.002;7.788;2023-03-01T10:40:32;4.70;99.90
2002;DHT22;1003;48.002;7.788;2023-03-01T10:43:04;4.60;99.90
2002;DHT22;1003;48.002;7.788;2023-03-01T10:45:35;4.50;99.90
2002;DHT22;1003;48.002;7.788;2023-03-01T10:48:05;4.50;99.90
2002;DHT22;1003;48.002;7.788;2023-03-01T10:50:39;4.30;99.90
2002;DHT22;1003;48.002;7.788;2023-03-01T10:53:23;4.30;99.90
2002;DHT22;1003;48.002;7.788;2023-03-01T10:55:59;4.10;99.90
2002;DHT22;1003;48.002;7.788;2023-03-01T10:58:30;4.60;99.90
2002;DHT22;1003;48.002;7.788;2023-03-01T11:01:00;4.60;99.90
2002;DHT22;1003;48.002;7.788;2023-03-01T11:03:29;4.50;99.90
2002;DHT22;1003;48.002;7.788;2023-03-01T11:06:00;4.30;99.90
2002;DHT22;1003;48.002;7.788;2023-03-01T11:08:35;4.40;99.90
2002;DHT22;1003;48.002;7.788;2023-03-01T11:11:18;4.50;99.90
2002;DHT22;1003;48.002;7.788;2023-03-01T11:13:57;4.50;99.90
2002;DHT22;1003;48.002;7.788;2023-03-01T11:16:34;4.60;99.90
2002;DHT22;1003;48.002;7.788;2023-03-01T11:19:18;4.70;99.90
2002;DHT22;1003;48.002;7.788;2023-03-01T11:21:55;4.60;99.90
2002;DHT22;1003;48.002;7.788;2023-03-01T11:24:38;4.80;99.90
2002;DHT22;1003;48.002;7.788;2023-03-01T11:27:17;5.00;99.90
2002;DHT22;1003;48.002;7.788;2023-03-01T11:29:53;4.90;99.90
2002;DHT22;1003;48.002;7.788;2023-03-01T11:32:29;5.00;99.90
2002;DHT22;1003;48.002;7.788;2023-03-01T11:35:08;5.10;99.90
2002;DHT22;1003;48.002;7.788;2023-03-01T11:37:46;5.20;99.90
2002;DHT22;1003;48.002;7.788;2023-03-01T11:40:29;5.30;99.90
2002;DHT22;1003;48.002;7.788;2023-03-01T11:43:05;5.20;99.90
2002;DHT22;1003;48.002;7.788;2023-03-01T11:45:49;5.20;99.90
2002;DHT22;1003;48.002;7.788;2023-03-01T11:48:34;5.40;99.90
2002;DHT22;1003;48.002;7.788;2023-03-01T11:51:20;5.10;99.90
2002;DHT22;1003;48.002;7.788;2023-03-01T11:54:00;5.50;99.90
2002;DHT22;1003;48.002;7.788;2023-03-01T11:56:35;5.70;99.90
2002;DHT22;1003;48.002;7.788;2023-03-01T11:59:28;5.60;99.90
2002;DHT22;1003;48.002;7.788;2023-03-01T12:02:38;5.60;99.90
2002;DHT22;1003;48.002;7.788;2023-03-01T12:08:43;5.50;99.90
2002;DHT22;1003;48.002;7.788;2023-03-01T12:11:26;5.90;99.90
2002;DHT22;1003;48.002;7.788;2023-03-01T12:14:23;6.20;99.90
2002;DHT22;1003;48.002;7.788;2023-03-01T12:17:25;6.20;99.90
2002;DHT22;1003;48.002;7.788;2023-03-01T12:20:23;6.30;99.90
2002;DHT22;1003;48.002;7.788;2023-03-01T12:23:10;6.20;99.90
2002;DHT22;1003;48.002;7.788;2023-03-01T12:26:07;6.10;99.90
2002;DHT22;1003;48.002;7.788;2023-03-01T12:28:54;6.20;99.90
2002;DHT22;1003;48.002;7.788;2023-03-01T12:31:59;6.10;99.90
2002;DHT22;1003;48.002;7.788;2023-03-01T12:34:55;6.00;99.90
2002;DHT22;1003;48.002;7.788;2023-03-01T12:37:56;5.90;99.90
2002;DHT22;1003;48.002;7.788;2023-03-01T12:40:49;6.00;99.90
2002;DHT22;1003;48.002;7.788;2023-03-01T12:43:45;6.10;99.90
2002;DHT22;1003;48.002;7.788;2023-03-01T12:46:32;6.40;99.90
2002;DHT22;1003;48.002;7.788;2023-03-01T12:49:12;6.90;99.90
2002;DHT22;1003;48.002;7.788;2023-03-01T12:51:46;7.30;99.90
2002;DHT22;1003;48.002;7.788;2023-03-01T12:54:27;7.40;99.90
2002;DHT22;1003;48.002;7.788;2023-03-01T12:56:59;7.40;99.90
2002;DHT22;1003;48.002;7.788;2023-03-01T12:59:39;7.40;99.90
2002;DHT22;1003;48.002;7.788;2023-03-01T13:02:19;7.40;99.90
2002;DHT22;1003;48.002;7.788;2023-03-01T13:05:00;7.30;99.90
2002;DHT22;1003;48.002;7.788;2023-03-01T13:07:48;7.30;99.90
2002;DHT22;1003;48.002;7.788;2023-03-01T13:10:27;7.20;99.90
2002;DHT22;1003;48.002;7.788;2023-03-01T13:13:12;7.10;99.90
2002;DHT22;1003;48.002;7.788;2023-03-01T13:15:44;7.00;99.90
2002;DHT22;1003;48.002;7.788;2023-03-01T13:18:32;7.10;99.90
2002;DHT22;1003;48.002;7.788;2023-03-01T13:21:02;7.00;99.90
2002;DHT22;1003;48.002;7.788;2023-03-01T13:23:34;7.00;99.90
2002;DHT22;1003;48.002;7.788;2023-03-01T13:26:08;7.10;99.90
2002;DHT22;1003;48.002;7.788;2023-03-01T13:28:47;7.20;99.90
2002;DHT22;1003;48.002;7.788;2023-03-01T13:34:49;7.10;99.90
2002;DHT22;1003;48.002;7.788;2023-03-01T13:37:20;7.30;99.90
2002;DHT22;1003;48.002;7.788;2023-03-01T13:43:31;7.80;99.90
2002;DHT22;1003;48.002;7.788;2023-03-01T13:46:00;7.80;99.90
2002;DHT22;1003;48.002;7.788;2023-03-01T13:48:30;7.70;99.90
2002;DHT22;1003;48.002;7.788;2023-03-01T13:51:00;7.50;99.90
2002;DHT22;1003;48.002;7.788;2023-03-01T13:53:33;7.70;99.90
2002;DHT22;1003;48.002;7.788;2023-03-01T13:56:07;7.60;99.90
2002;DHT22;1003;48.002;7.788;2023-03-01T13:58:48;7.90;99.90
2002;DHT22;1003;48.002;7.788;2023-03-01T14:01:23;8.50;99.90
2002;DHT22;1003;48.002;7.788;2023-03-01T14:03:52;9.00;99.90
2002;DHT22;1003;48.002;7.788;2023-03-01T14:06:21;8.50;99.90
2002;DHT22;1003;48.002;7.788;2023-03-01T14:12:02;7.80;99.90
2002;DHT22;1003;48.002;7.788;2023-03-01T14:14:57;8.00;99.90
2002;DHT22;1003;48.002;7.788;2023-03-01T14:17:40;7.90;99.90
2002;DHT22;1003;48.002;7.788;2023-03-01T14:20:17;8.00;99.90
2002;DHT22;1003;48.002;7.788;2023-03-01T14:22:47;7.70;99.90
2002;DHT22;1003;48.002;7.788;2023-03-01T14:25:24;7.90;99.90
2002;DHT22;1003;48.002;7.788;2023-03-01T14:28:03;8.00;99.90
2002;DHT22;1003;48.002;7.788;2023-03-01T14:30:42;7.60;99.90
2002;DHT22;1003;48.002;7.788;2023-03-01T14:33:22;7.60;99.90
2002;DHT22;1003;48.002;7.788;2023-03-01T14:35:56;7.50;99.90
2002;DHT22;1003;48.002;7.788;2023-03-01T14:38:30;7.50;99.90
2002;DHT22;1003;48.002;7.788;2023-03-01T14:41:03;7.70;99.90
2002;DHT22;1003;48.002;7.788;2023-03-01T14:43:32;7.60;99.90
2002;DHT22;1003;48.002;7.788;2023-03-01T14:46:01;7.50;99.90
2002;DHT22;1003;48.002;7.788;2023-03-01T14:48:30;7.50;99.90
2002;DHT22;1003;48.002;7.788;2023-03-01T14:50:58;7.50;99.90
2002;DHT22;1003;48.002;7.788;2023-03-01T14:53:27;7.50;99.90
2002;DHT22;1003;48.002;7.788;2023-03-01T14:56:00;7.50;99.90
2002;DHT22;1003;48.002;7.788;2023-03-01T14:58:28;7.60;99.90
2002;DHT22;1003;48.002;7.788;2023-03-01T15:01:01;7.70;99.90
2002;DHT22;1003;48.002;7.788;2023-03-01T15:03:33;7.60;99.90
2002;DHT22;1003;48.002;7.788;2023-03-01T15:06:03;7.50;99.90
2002;DHT22;1003;48.002;7.788;2023-03-01T15:08:32;7.50;99.90
2002;DHT22;1003;48.002;7.788;2023-03-01T15:11:03;7.50;99.90
2002;DHT22;1003;48.002;7.788;2023-03-01T15:13:34;7.30;99.90
2002;DHT22;1003;48.002;7.788;2023-03-01T15:16:06;7.30;99.90
2002;DHT22;1003;48.002;7.788;2023-03-01T15:18:36;7.20;99.90
2002;DHT22;1003;48.002;7.788;2023-03-01T15:21:14;7.20;99.90
2002;DHT22;1003;48.002;7.788;2023-03-01T15:23:48;7.10;99.90
2002;DHT22;1003;48.002;7.788;2023-03-01T15:26:29;7.00;99.90
2002;DHT22;1003;48.002;7.788;2023-03-01T15:28:59;7.10;99.90
2002;DHT22;1003;48.002;7.788;2023-03-01T15:31:31;7.00;99.90
2002;DHT22;1003;48.002;7.788;2023-03-01T15:34:21;7.10;99.90
2002;DHT22;1003;48.002;7.788;2023-03-01T15:36:50;7.20;99.90
2002;DHT22;1003;48.002;7.788;2023-03-01T15:39:34;7.00;99.90
2002;DHT22;1003;48.002;7.788;2023-03-01T15:42:05;7.00;99.90
2002;DHT22;1003;48.002;7.788;2023-03-01T15:44:35;7.00;99.90
2002;DHT22;1003;48.002;7.788;2023-03-01T15:47:26;7.10;99.90
2002;DHT22;1003;48.002;7.788;2023-03-01T15:49:57;6.90;99.90
2002;DHT22;1003;48.002;7.788;2023-03-01T15:52:27;6.80;99.90
2002;DHT22;1003;48.002;7.788;2023-03-01T15:54:58;6.80;99.90
2002;DHT22;1003;48.002;7.788;2023-03-01T15:57:26;6.80;99.90
2002;DHT22;1003;48.002;7.788;2023-03-01T15:59:53;6.70;99.90
2002;DHT22;1003;48.002;7.788;2023-03-01T16:02:22;6.60;99.90
2002;DHT22;1003;48.002;7.788;2023-03-01T16:04:50;6.50;99.90
2002;DHT22;1003;48.002;7.788;2023-03-01T16:07:19;6.60;99.90
2002;DHT22;1003;48.002;7.788;2023-03-01T16:09:46;6.50;99.90
2002;DHT22;1003;48.002;7.788;2023-03-01T16:12:14;6.40;99.90
2002;DHT22;1003;48.002;7.788;2023-03-01T16:14:43;6.40;99.90
2002;DHT22;1003;48.002;7.788;2023-03-01T16:17:10;6.30;99.90
2002;DHT22;1003;48.002;7.788;2023-03-01T16:19:38;6.10;99.90
2002;DHT22;1003;48.002;7.788;2023-03-01T16:22:06;6.10;99.90
2002;DHT22;1003;48.002;7.788;2023-03-01T16:24:35;6.00;99.90
2002;DHT22;1003;48.002;7.788;2023-03-01T16:27:02;6.00;99.90
2002;DHT22;1003;48.002;7.788;2023-03-01T16:29:30;5.90;99.90
2002;DHT22;1003;48.002;7.788;2023-03-01T16:31:59;5.80;99.90
2002;DHT22;1003;48.002;7.788;2023-03-01T16:34:27;5.80;99.90
2002;DHT22;1003;48.002;7.788;2023-03-01T16:36:56;5.80;99.90
2002;DHT22;1003;48.002;7.788;2023-03-01T16:39:23;5.70;99.90
2002;DHT22;1003;48.002;7.788;2023-03-01T16:41:50;5.70;99.90
2002;DHT22;1003;48.002;7.788;2023-03-01T16:44:17;5.70;99.90
2002;DHT22;1003;48.002;7.788;2023-03-01T16:46:44;5.60;99.90
2002;DHT22;1003;48.002;7.788;2023-03-01T16:49:11;5.70;99.90
2002;DHT22;1003;48.002;7.788;2023-03-01T16:51:38;5.60;99.90
2002;DHT22;1003;48.002;7.788;2023-03-01T16:54:06;5.50;99.90
2002;DHT22;1003;48.002;7.788;2023-03-01T16:56:33;5.30;99.90
2002;DHT22;1003;48.002;7.788;2023-03-01T16:59:03;5.20;99.90